sensor_id;sensor_type;location;lat;lon;timestamp;pressure;altitude;pressure_sealevel;temperature;humidity
70833;BME280;58452;59.418;17.962;2023-04-07T00:00:57;102480.34;;;2.33;79.69
70833;BME280;58452;59.418;17.962;2023-04-07T00:03:22;102476.94;;;2.34;79.58
70833;BME280;58452;59.418;17.962;2023-04-07T00:05:48;102483.94;;;2.27;79.96
70833;BME280;58452;59.418;17.962;2023-04-07T00:08:14;102480.34;;;2.33;79.68
70833;BME280;58452;59.418;17.962;2023-04-07T00:10:39;102481.84;;;2.40;79.62
70833;BME280;58452;59.418;17.962;2023-04-07T00:13:05;102481.06;;;2.38;79.90
70833;BME280;58452;59.418;17.962;2023-04-07T00:15:30;102473.31;;;2.41;79.44
70833;BME280;58452;59.418;17.962;2023-04-07T00:17:56;102476.66;;;2.43;79.49
70833;BME280;58452;59.418;17.962;2023-04-07T00:20:21;102461.56;;;2.37;79.53
70833;BME280;58452;59.418;17.962;2023-04-07T00:22:47;102464.97;;;2.36;79.77
70833;BME280;58452;59.418;17.962;2023-04-07T00:25:13;102470.06;;;2.36;79.46
70833;BME280;58452;59.418;17.962;2023-04-07T00:27:38;102465.44;;;2.21;80.07
70833;BME280;58452;59.418;17.962;2023-04-07T00:30:04;102458.25;;;2.06;80.45
70833;BME280;58452;59.418;17.962;2023-04-07T00:32:30;102470.06;;;2.08;80.79
70833;BME280;58452;59.418;17.962;2023-04-07T00:34:55;102476.59;;;2.17;80.48
70833;BME280;58452;59.418;17.962;2023-04-07T00:37:21;102472.56;;;2.10;81.09
70833;BME280;58452;59.418;17.962;2023-04-07T00:39:46;102468.31;;;2.10;80.88
70833;BME280;58452;59.418;17.962;2023-04-07T00:42:12;102477.59;;;2.13;80.67
70833;BME280;58452;59.418;17.962;2023-04-07T00:44:37;102476.59;;;2.17;80.47
70833;BME280;58452;59.418;17.962;2023-04-07T00:47:03;102478.25;;;2.18;80.44
70833;BME280;58452;59.418;17.962;2023-04-07T00:49:29;102485.16;;;2.14;80.72
70833;BME280;58452;59.418;17.962;2023-04-07T00:51:57;102474.03;;;2.17;80.44
70833;BME280;58452;59.418;17.962;2023-04-07T00:54:23;102473.06;;;2.21;80.71
70833;BME280;58452;59.418;17.962;2023-04-07T00:56:48;102466.69;;;2.08;81.10
70833;BME280;58452;59.418;17.962;2023-04-07T00:59:15;102468.16;;;2.15;80.73
70833;BME280;58452;59.418;17.962;2023-04-07T01:01:50;102468.88;;;2.20;80.94
70833;BME280;58452;59.418;17.962;2023-04-07T01:04:32;102465.44;;;2.21;80.72
70833;BME280;58452;59.418;17.962;2023-04-07T01:07:10;102464.56;;;2.22;80.75
70833;BME280;58452;59.418;17.962;2023-04-07T01:09:52;102460.50;;;2.16;80.91
70833;BME280;58452;59.418;17.962;2023-04-07T01:12:29;102463.09;;;2.13;80.82
70833;BME280;58452;59.418;17.962;2023-04-07T01:15:06;102455.63;;;2.09;81.24
70833;BME280;58452;59.418;17.962;2023-04-07T01:17:34;102458.94;;;2.11;81.17
70833;BME280;58452;59.418;17.962;2023-04-07T01:20:04;102456.38;;;2.12;81.18
70833;BME280;58452;59.418;17.962;2023-04-07T01:22:44;102458.25;;;2.06;81.44
70833;BME280;58452;59.418;17.962;2023-04-07T01:25:26;102454.38;;;1.94;81.60
70833;BME280;58452;59.418;17.962;2023-04-07T01:28:48;102452.59;;;1.96;81.56
70833;BME280;58452;59.418;17.962;2023-04-07T01:31:04;102447.47;;;1.98;81.61
70833;BME280;58452;59.418;17.962;2023-04-07T01:33:33;102444.94;;;1.98;81.42
70833;BME280;58452;59.418;17.962;2023-04-07T01:35:59;102442.44;;;1.94;81.97
70833;BME280;58452;59.418;17.962;2023-04-07T01:38:27;102448.53;;;1.90;81.75
70833;BME280;58452;59.418;17.962;2023-04-07T01:40:54;102440.06;;;1.90;82.03
70833;BME280;58452;59.418;17.962;2023-04-07T01:43:21;102441.63;;;1.94;82.42
70833;BME280;58452;59.418;17.962;2023-04-07T01:45:48;102445.97;;;1.90;82.20
70833;BME280;58452;59.418;17.962;2023-04-07T01:48:14;102442.38;;;1.98;81.97
70833;BME280;58452;59.418;17.962;2023-04-07T01:50:40;102447.81;;;1.85;82.29
70833;BME280;58452;59.418;17.962;2023-04-07T01:53:06;102445.97;;;1.90;82.52
70833;BME280;58452;59.418;17.962;2023-04-07T01:55:32;102441.25;;;1.77;82.69
70833;BME280;58452;59.418;17.962;2023-04-07T01:58:03;102448.06;;;1.76;83.09
70833;BME280;58452;59.418;17.962;2023-04-07T02:00:29;102444.41;;;1.86;82.67
70833;BME280;58452;59.418;17.962;2023-04-07T02:02:58;102439.56;;;1.77;83.30
70833;BME280;58452;59.418;17.962;2023-04-07T02:05:29;102445.28;;;1.85;83.03
70833;BME280;58452;59.418;17.962;2023-04-07T02:08:01;102443.56;;;1.86;82.85
70833;BME280;58452;59.418;17.962;2023-04-07T02:10:28;102451.50;;;1.75;83.21
70833;BME280;58452;59.418;17.962;2023-04-07T02:12:55;102451.53;;;1.74;83.95
70833;BME280;58452;59.418;17.962;2023-04-07T02:15:23;102446.41;;;1.75;84.12
70833;BME280;58452;59.418;17.962;2023-04-07T02:17:51;102448.44;;;1.64;84.33
70833;BME280;58452;59.418;17.962;2023-04-07T02:20:19;102453.09;;;1.79;83.85
70833;BME280;58452;59.418;17.962;2023-04-07T02:22:45;102459.75;;;1.83;83.77
70833;BME280;58452;59.418;17.962;2023-04-07T02:27:49;102468.09;;;1.88;83.91
70833;BME280;58452;59.418;17.962;2023-04-07T02:30:14;102455.31;;;1.90;83.44
70833;BME280;58452;59.418;17.962;2023-04-07T02:32:40;102461.91;;;1.97;83.63
70833;BME280;58452;59.418;17.962;2023-04-07T02:35:06;102461.06;;;1.96;83.38
70833;BME280;58452;59.418;17.962;2023-04-07T02:37:32;102466.88;;;2.02;83.27
70833;BME280;58452;59.418;17.962;2023-04-07T02:39:57;102465.97;;;2.03;83.15
70833;BME280;58452;59.418;17.962;2023-04-07T02:42:22;102467.47;;;2.10;82.89
70833;BME280;58452;59.418;17.962;2023-04-07T02:44:49;102462.38;;;2.10;82.85
70833;BME280;58452;59.418;17.962;2023-04-07T02:47:15;102469.03;;;2.14;83.06
70833;BME280;58452;59.418;17.962;2023-04-07T02:49:40;102461.31;;;2.17;82.77
70833;BME280;58452;59.418;17.962;2023-04-07T02:52:06;102459.66;;;2.16;82.63
70833;BME280;58452;59.418;17.962;2023-04-07T02:54:31;102459.56;;;2.19;82.63
70833;BME280;58452;59.418;17.962;2023-04-07T02:56:56;102461.38;;;2.15;82.54
70833;BME280;58452;59.418;17.962;2023-04-07T02:59:22;102460.63;;;2.12;81.97
70833;BME280;58452;59.418;17.962;2023-04-07T03:01:48;102458.00;;;2.13;82.31
70833;BME280;58452;59.418;17.962;2023-04-07T03:04:13;102460.44;;;2.18;82.49
70833;BME280;58452;59.418;17.962;2023-04-07T03:06:38;102462.31;;;2.13;82.28
70833;BME280;58452;59.418;17.962;2023-04-07T03:09:04;102458.34;;;2.03;82.72
70833;BME280;58452;59.418;17.962;2023-04-07T03:11:29;102463.75;;;1.92;82.57
70833;BME280;58452;59.418;17.962;2023-04-07T03:13:55;102462.75;;;1.98;83.02
70833;BME280;58452;59.418;17.962;2023-04-07T03:16:20;102460.88;;;2.03;82.91
70833;BME280;58452;59.418;17.962;2023-04-07T03:18:46;102464.38;;;1.98;82.96
70833;BME280;58452;59.418;17.962;2023-04-07T03:21:12;102465.28;;;1.98;83.28
70833;BME280;58452;59.418;17.962;2023-04-07T03:23:37;102460.78;;;2.06;83.21
70833;BME280;58452;59.418;17.962;2023-04-07T03:26:03;102464.03;;;2.11;82.66
70833;BME280;58452;59.418;17.962;2023-04-07T03:28:28;102468.53;;;2.03;82.63
70833;BME280;58452;59.418;17.962;2023-04-07T03:30:53;102465.19;;;2.01;83.05
70833;BME280;58452;59.418;17.962;2023-04-07T03:33:19;102473.63;;;2.03;83.05
70833;BME280;58452;59.418;17.962;2023-04-07T03:35:45;102471.50;;;1.87;83.54
70833;BME280;58452;59.418;17.962;2023-04-07T03:38:10;102473.28;;;1.85;83.77
70833;BME280;58452;59.418;17.962;2023-04-07T03:40:36;102469.66;;;1.92;83.62
70833;BME280;58452;59.418;17.962;2023-04-07T03:43:01;102472.53;;;1.82;84.28
70833;BME280;58452;59.418;17.962;2023-04-07T03:45:27;102466.78;;;1.75;84.30
70833;BME280;58452;59.418;17.962;2023-04-07T03:47:52;102468.41;;;1.78;84.69
70833;BME280;58452;59.418;17.962;2023-04-07T03:50:18;102470.00;;;1.80;84.40
70833;BME280;58452;59.418;17.962;2023-04-07T03:52:44;102467.25;;;1.88;84.08
70833;BME280;58452;59.418;17.962;2023-04-07T03:55:10;102475.91;;;1.82;84.05
70833;BME280;58452;59.418;17.962;2023-04-07T03:57:35;102473.31;;;1.84;84.31
70833;BME280;58452;59.418;17.962;2023-04-07T04:00:01;102475.91;;;1.82;84.11
70833;BME280;58452;59.418;17.962;2023-04-07T04:02:26;102482.00;;;1.77;84.19
70833;BME280;58452;59.418;17.962;2023-04-07T04:04:52;102478.59;;;1.76;84.70
70833;BME280;58452;59.418;17.962;2023-04-07T04:07:17;102478.59;;;1.76;84.58
70833;BME280;58452;59.418;17.962;2023-04-07T04:09:43;102481.88;;;1.81;84.53
70833;BME280;58452;59.418;17.962;2023-04-07T04:12:08;102477.59;;;1.83;84.29
70833;BME280;58452;59.418;17.962;2023-04-07T04:14:34;102480.88;;;1.87;84.56
70833;BME280;58452;59.418;17.962;2023-04-07T04:16:59;102486.00;;;1.85;84.63
70833;BME280;58452;59.418;17.962;2023-04-07T04:19:25;102478.28;;;1.88;84.26
70833;BME280;58452;59.418;17.962;2023-04-07T04:21:50;102476.88;;;1.78;84.69
70833;BME280;58452;59.418;17.962;2023-04-07T04:24:16;102490.13;;;1.89;84.67
70833;BME280;58452;59.418;17.962;2023-04-07T04:26:41;102482.59;;;1.86;84.12
70833;BME280;58452;59.418;17.962;2023-04-07T04:29:06;102490.13;;;1.89;84.35
70833;BME280;58452;59.418;17.962;2023-04-07T04:31:32;102493.72;;;1.82;84.79
70833;BME280;58452;59.418;17.962;2023-04-07T04:33:57;102493.53;;;1.88;84.42
70833;BME280;58452;59.418;17.962;2023-04-07T04:36:23;102503.81;;;1.85;84.56
70833;BME280;58452;59.418;17.962;2023-04-07T04:38:48;102503.59;;;1.93;84.55
70833;BME280;58452;59.418;17.962;2023-04-07T04:41:14;102508.03;;;1.86;84.26
70833;BME280;58452;59.418;17.962;2023-04-07T04:43:39;102507.03;;;1.92;84.30
70833;BME280;58452;59.418;17.962;2023-04-07T04:46:05;102512.97;;;1.91;84.43
70833;BME280;58452;59.418;17.962;2023-04-07T04:48:31;102521.38;;;1.64;84.52
70833;BME280;58452;59.418;17.962;2023-04-07T04:50:56;102521.19;;;1.71;85.26
70833;BME280;58452;59.418;17.962;2023-04-07T04:53:21;102523.47;;;1.80;85.44
70833;BME280;58452;59.418;17.962;2023-04-07T04:55:47;102521.59;;;1.87;84.93
70833;BME280;58452;59.418;17.962;2023-04-07T04:58:19;102528.31;;;1.89;85.00
70833;BME280;58452;59.418;17.962;2023-04-07T05:00:44;102525.69;;;1.92;84.84
70833;BME280;58452;59.418;17.962;2023-04-07T05:03:10;102529.09;;;1.91;84.67
70833;BME280;58452;59.418;17.962;2023-04-07T05:05:35;102541.97;;;1.87;84.60
70833;BME280;58452;59.418;17.962;2023-04-07T05:08:00;102534.28;;;1.88;84.84
70833;BME280;58452;59.418;17.962;2023-04-07T05:10:26;102533.69;;;1.79;85.21
70833;BME280;58452;59.418;17.962;2023-04-07T05:12:51;102536.03;;;1.86;85.24
70833;BME280;58452;59.418;17.962;2023-04-07T05:15:17;102531.59;;;1.62;85.41
70833;BME280;58452;59.418;17.962;2023-04-07T05:17:42;102528.94;;;1.67;86.02
70833;BME280;58452;59.418;17.962;2023-04-07T05:20:09;102534.69;;;1.73;85.62
70833;BME280;58452;59.418;17.962;2023-04-07T05:22:35;102537.91;;;1.80;85.80
70833;BME280;58452;59.418;17.962;2023-04-07T05:25:00;102537.88;;;1.81;85.37
70833;BME280;58452;59.418;17.962;2023-04-07T05:27:26;102533.53;;;1.85;85.11
70833;BME280;58452;59.418;17.962;2023-04-07T05:29:51;102536.88;;;1.87;84.86
70833;BME280;58452;59.418;17.962;2023-04-07T05:32:18;102548.63;;;1.91;85.01
70833;BME280;58452;59.418;17.962;2023-04-07T05:34:43;102547.88;;;1.87;84.66
70833;BME280;58452;59.418;17.962;2023-04-07T05:37:09;102552.38;;;1.79;85.52
70833;BME280;58452;59.418;17.962;2023-04-07T05:39:35;102551.41;;;1.83;84.95
70833;BME280;58452;59.418;17.962;2023-04-07T05:42:00;102550.38;;;1.89;84.83
70833;BME280;58452;59.418;17.962;2023-04-07T05:44:27;102552.81;;;1.93;84.82
70833;BME280;58452;59.418;17.962;2023-04-07T05:46:52;102557.72;;;2.00;84.75
70833;BME280;58452;59.418;17.962;2023-04-07T05:49:17;102556.31;;;1.89;84.92
70833;BME280;58452;59.418;17.962;2023-04-07T05:51:43;102556.16;;;1.95;84.60
70833;BME280;58452;59.418;17.962;2023-04-07T05:54:08;102550.97;;;1.98;84.82
70833;BME280;58452;59.418;17.962;2023-04-07T05:56:34;102559.50;;;1.98;84.64
70833;BME280;58452;59.418;17.962;2023-04-07T05:58:59;102561.09;;;2.02;84.48
70833;BME280;58452;59.418;17.962;2023-04-07T06:01:26;102565.44;;;1.98;84.40
70833;BME280;58452;59.418;17.962;2023-04-07T06:03:51;102563.31;;;1.81;84.65
70833;BME280;58452;59.418;17.962;2023-04-07T06:06:17;102562.16;;;1.93;84.77
70833;BME280;58452;59.418;17.962;2023-04-07T06:08:42;102567.81;;;2.03;84.72
70833;BME280;58452;59.418;17.962;2023-04-07T06:11:08;102561.88;;;2.04;84.45
70833;BME280;58452;59.418;17.962;2023-04-07T06:13:33;102561.97;;;2.01;84.37
70833;BME280;58452;59.418;17.962;2023-04-07T06:15:59;102566.72;;;1.80;84.67
70833;BME280;58452;59.418;17.962;2023-04-07T06:18:24;102568.41;;;1.81;85.23
70833;BME280;58452;59.418;17.962;2023-04-07T06:20:50;102563.31;;;1.81;85.12
70833;BME280;58452;59.418;17.962;2023-04-07T06:23:15;102573.41;;;1.84;85.42
70833;BME280;58452;59.418;17.962;2023-04-07T06:25:41;102573.13;;;1.95;85.06
70833;BME280;58452;59.418;17.962;2023-04-07T06:28:06;102579.72;;;2.02;84.95
70833;BME280;58452;59.418;17.962;2023-04-07T06:30:33;102571.41;;;1.95;84.60
70833;BME280;58452;59.418;17.962;2023-04-07T06:32:58;102577.44;;;1.93;85.14
70833;BME280;58452;59.418;17.962;2023-04-07T06:35:24;102577.22;;;2.01;84.95
70833;BME280;58452;59.418;17.962;2023-04-07T06:37:51;102577.88;;;2.09;84.37
70833;BME280;58452;59.418;17.962;2023-04-07T06:40:16;102577.88;;;2.09;84.13
70833;BME280;58452;59.418;17.962;2023-04-07T06:42:42;102579.38;;;2.16;84.28
70833;BME280;58452;59.418;17.962;2023-04-07T06:45:08;102579.44;;;2.13;84.06
70833;BME280;58452;59.418;17.962;2023-04-07T06:47:33;102584.25;;;1.92;84.74
70833;BME280;58452;59.418;17.962;2023-04-07T06:49:59;102583.38;;;1.93;84.77
70833;BME280;58452;59.418;17.962;2023-04-07T06:52:25;102585.06;;;1.93;84.87
70833;BME280;58452;59.418;17.962;2023-04-07T06:54:50;102583.09;;;1.72;85.80
70833;BME280;58452;59.418;17.962;2023-04-07T06:57:15;102588.78;;;1.81;86.07
70833;BME280;58452;59.418;17.962;2023-04-07T06:59:41;102584.25;;;1.92;85.69
70833;BME280;58452;59.418;17.962;2023-04-07T07:02:07;102580.91;;;1.90;85.97
70833;BME280;58452;59.418;17.962;2023-04-07T07:04:35;102584.16;;;1.95;85.98
70833;BME280;58452;59.418;17.962;2023-04-07T07:07:01;102587.41;;;2.01;85.83
70833;BME280;58452;59.418;17.962;2023-04-07T07:09:27;102585.81;;;1.98;85.84
70833;BME280;58452;59.418;17.962;2023-04-07T07:11:53;102583.00;;;2.06;85.23
70833;BME280;58452;59.418;17.962;2023-04-07T07:14:18;102591.38;;;2.11;85.03
70833;BME280;58452;59.418;17.962;2023-04-07T07:16:44;102594.78;;;2.10;84.83
70833;BME280;58452;59.418;17.962;2023-04-07T07:19:09;102590.75;;;2.03;85.25
70833;BME280;58452;59.418;17.962;2023-04-07T07:21:35;102588.19;;;2.03;85.49
70833;BME280;58452;59.418;17.962;2023-04-07T07:24:01;102596.00;;;1.96;85.58
70833;BME280;58452;59.418;17.962;2023-04-07T07:26:26;102597.53;;;2.04;85.54
70833;BME280;58452;59.418;17.962;2023-04-07T07:28:51;102597.22;;;2.14;85.78
70833;BME280;58452;59.418;17.962;2023-04-07T07:31:17;102603.16;;;2.15;85.33
70833;BME280;58452;59.418;17.962;2023-04-07T07:33:43;102597.97;;;2.18;84.76
70833;BME280;58452;59.418;17.962;2023-04-07T07:36:10;102602.31;;;2.14;84.97
70833;BME280;58452;59.418;17.962;2023-04-07T07:38:36;102603.38;;;2.06;85.50
70833;BME280;58452;59.418;17.962;2023-04-07T07:41:02;102609.66;;;2.25;84.98
70833;BME280;58452;59.418;17.962;2023-04-07T07:43:27;102609.84;;;2.19;84.69
70833;BME280;58452;59.418;17.962;2023-04-07T07:45:53;102604.44;;;2.29;84.56
70833;BME280;58452;59.418;17.962;2023-04-07T07:48:19;102619.59;;;2.03;84.65
70833;BME280;58452;59.418;17.962;2023-04-07T07:50:44;102611.53;;;2.18;85.04
70833;BME280;58452;59.418;17.962;2023-04-07T07:53:11;102618.19;;;2.24;84.89
70833;BME280;58452;59.418;17.962;2023-04-07T07:55:36;102619.94;;;2.22;85.08
70833;BME280;58452;59.418;17.962;2023-04-07T07:58:02;102621.34;;;2.32;84.66
70833;BME280;58452;59.418;17.962;2023-04-07T08:00:27;102623.88;;;2.32;84.23
70833;BME280;58452;59.418;17.962;2023-04-07T08:02:53;102631.31;;;2.39;84.28
70833;BME280;58452;59.418;17.962;2023-04-07T08:05:19;102623.88;;;2.33;84.28
70833;BME280;58452;59.418;17.962;2023-04-07T08:07:44;102628.13;;;2.33;84.30
70833;BME280;58452;59.418;17.962;2023-04-07T08:10:11;102631.41;;;2.36;84.24
70833;BME280;58452;59.418;17.962;2023-04-07T08:12:36;102635.44;;;2.45;83.98
70833;BME280;58452;59.418;17.962;2023-04-07T08:15:02;102638.97;;;2.39;83.56
70833;BME280;58452;59.418;17.962;2023-04-07T08:17:28;102642.22;;;2.44;84.03
70833;BME280;58452;59.418;17.962;2023-04-07T08:19:53;102643.63;;;2.55;83.93
70833;BME280;58452;59.418;17.962;2023-04-07T08:22:18;102648.25;;;2.42;83.79
70833;BME280;58452;59.418;17.962;2023-04-07T08:24:45;102648.84;;;2.50;84.01
70833;BME280;58452;59.418;17.962;2023-04-07T08:27:11;102648.19;;;2.43;83.55
70833;BME280;58452;59.418;17.962;2023-04-07T08:29:37;102651.78;;;2.38;84.28
70833;BME280;58452;59.418;17.962;2023-04-07T08:32:02;102647.91;;;2.54;84.34
70833;BME280;58452;59.418;17.962;2023-04-07T08:34:28;102653.63;;;2.62;83.73
70833;BME280;58452;59.418;17.962;2023-04-07T08:36:53;102649.06;;;2.72;83.39
70833;BME280;58452;59.418;17.962;2023-04-07T08:39:19;102639.50;;;2.80;83.02
70833;BME280;58452;59.418;17.962;2023-04-07T08:41:45;102641.72;;;2.90;82.71
70833;BME280;58452;59.418;17.962;2023-04-07T08:44:14;102647.78;;;2.86;82.75
70833;BME280;58452;59.418;17.962;2023-04-07T08:46:40;102652.47;;;2.72;83.10
70833;BME280;58452;59.418;17.962;2023-04-07T08:49:10;102647.28;;;2.75;83.16
70833;BME280;58452;59.418;17.962;2023-04-07T08:51:46;102648.59;;;2.88;82.96
70833;BME280;58452;59.418;17.962;2023-04-07T08:54:14;102644.97;;;2.95;82.78
70833;BME280;58452;59.418;17.962;2023-04-07T08:56:41;102640.63;;;2.71;82.73
70833;BME280;58452;59.418;17.962;2023-04-07T08:59:08;102647.97;;;2.80;83.11
70833;BME280;58452;59.418;17.962;2023-04-07T09:01:35;102653.50;;;2.94;82.41
70833;BME280;58452;59.418;17.962;2023-04-07T09:04:04;102651.69;;;2.98;82.19
70833;BME280;58452;59.418;17.962;2023-04-07T09:06:31;102643.88;;;3.04;81.99
70833;BME280;58452;59.418;17.962;2023-04-07T09:08:58;102649.78;;;3.05;82.30
70833;BME280;58452;59.418;17.962;2023-04-07T09:11:28;102648.63;;;2.87;82.23
70833;BME280;58452;59.418;17.962;2023-04-07T09:13:55;102649.22;;;2.97;82.20
70833;BME280;58452;59.418;17.962;2023-04-07T09:16:21;102651.94;;;2.90;82.52
70833;BME280;58452;59.418;17.962;2023-04-07T09:18:51;102656.94;;;2.93;82.82
70833;BME280;58452;59.418;17.962;2023-04-07T09:21:17;102655.59;;;3.10;82.27
70833;BME280;58452;59.418;17.962;2023-04-07T09:23:42;102658.66;;;3.21;82.23
70833;BME280;58452;59.418;17.962;2023-04-07T09:28:44;102655.56;;;3.11;81.18
70833;BME280;58452;59.418;17.962;2023-04-07T09:31:10;102663.91;;;3.16;81.34
70833;BME280;58452;59.418;17.962;2023-04-07T09:33:36;102658.53;;;3.25;81.50
70833;BME280;58452;59.418;17.962;2023-04-07T09:36:03;102668.72;;;3.25;81.02
70833;BME280;58452;59.418;17.962;2023-04-07T09:38:36;102662.69;;;3.28;81.10
70833;BME280;58452;59.418;17.962;2023-04-07T09:41:09;102659.06;;;3.35;81.06
70833;BME280;58452;59.418;17.962;2023-04-07T09:43:40;102660.72;;;3.36;80.55
70833;BME280;58452;59.418;17.962;2023-04-07T09:46:11;102671.88;;;3.33;80.51
70833;BME280;58452;59.418;17.962;2023-04-07T09:48:37;102665.13;;;3.31;80.77
70833;BME280;58452;59.418;17.962;2023-04-07T09:51:16;102668.16;;;3.16;81.30
70833;BME280;58452;59.418;17.962;2023-04-07T09:53:50;102675.81;;;3.16;81.69
70833;BME280;58452;59.418;17.962;2023-04-07T09:56:19;102674.47;;;3.32;80.99
70833;BME280;58452;59.418;17.962;2023-04-07T09:58:49;102679.72;;;3.27;80.64
70833;BME280;58452;59.418;17.962;2023-04-07T10:01:16;102676.13;;;3.05;80.77
70833;BME280;58452;59.418;17.962;2023-04-07T10:03:43;102679.06;;;3.21;81.49
70833;BME280;58452;59.418;17.962;2023-04-07T10:06:09;102683.81;;;3.33;81.04
70833;BME280;58452;59.418;17.962;2023-04-07T10:08:37;102686.06;;;3.42;80.42
70833;BME280;58452;59.418;17.962;2023-04-07T10:11:04;102687.72;;;3.43;79.76
70833;BME280;58452;59.418;17.962;2023-04-07T10:13:32;102686.47;;;3.30;79.58
70833;BME280;58452;59.418;17.962;2023-04-07T10:15:58;102691.72;;;3.24;79.87
70833;BME280;58452;59.418;17.962;2023-04-07T10:18:28;102681.53;;;3.24;80.15
70833;BME280;58452;59.418;17.962;2023-04-07T10:20:58;102685.13;;;3.17;80.31
70833;BME280;58452;59.418;17.962;2023-04-07T10:23:30;102689.38;;;3.18;80.59
70833;BME280;58452;59.418;17.962;2023-04-07T10:25:57;102680.34;;;3.34;80.91
70833;BME280;58452;59.418;17.962;2023-04-07T10:28:25;102683.31;;;3.22;79.74
70833;BME280;58452;59.418;17.962;2023-04-07T10:30:52;102690.81;;;3.26;80.42
70833;BME280;58452;59.418;17.962;2023-04-07T10:33:53;102685.94;;;3.19;80.41
70833;BME280;58452;59.418;17.962;2023-04-07T10:36:20;102688.56;;;3.16;80.38
70833;BME280;58452;59.418;17.962;2023-04-07T10:41:38;102686.91;;;3.15;80.70
70833;BME280;58452;59.418;17.962;2023-04-07T10:44:05;102684.97;;;3.23;80.92
70833;BME280;58452;59.418;17.962;2023-04-07T10:49:16;102693.09;;;3.34;80.16
70833;BME280;58452;59.418;17.962;2023-04-07T10:51:42;102685.31;;;3.38;80.26
70833;BME280;58452;59.418;17.962;2023-04-07T10:59:29;102695.25;;;3.20;80.76
70833;BME280;58452;59.418;17.962;2023-04-07T11:04:40;102695.19;;;3.23;79.90
70833;BME280;58452;59.418;17.962;2023-04-07T11:07:10;102692.63;;;3.23;79.89
70833;BME280;58452;59.418;17.962;2023-04-07T11:09:36;102696.94;;;3.21;80.31
70833;BME280;58452;59.418;17.962;2023-04-07T11:12:01;102694.34;;;3.22;79.97
70833;BME280;58452;59.418;17.962;2023-04-07T11:14:32;102701.28;;;3.17;80.57
70833;BME280;58452;59.418;17.962;2023-04-07T11:16:59;102697.97;;;3.15;80.60
70833;BME280;58452;59.418;17.962;2023-04-07T11:19:28;102698.03;;;3.12;80.56
70833;BME280;58452;59.418;17.962;2023-04-07T11:22:12;102701.47;;;3.11;80.46
70833;BME280;58452;59.418;17.962;2023-04-07T11:24:38;102695.34;;;3.17;80.70
70833;BME280;58452;59.418;17.962;2023-04-07T11:27:04;102698.59;;;3.22;80.39
70833;BME280;58452;59.418;17.962;2023-04-07T11:29:31;102701.78;;;3.30;80.51
70833;BME280;58452;59.418;17.962;2023-04-07T11:31:58;102705.88;;;3.34;79.68
70833;BME280;58452;59.418;17.962;2023-04-07T11:34:35;102702.84;;;3.49;79.89
70833;BME280;58452;59.418;17.962;2023-04-07T11:37:23;102701.03;;;3.53;79.66
70833;BME280;58452;59.418;17.962;2023-04-07T11:39:55;102701.72;;;3.58;79.40
70833;BME280;58452;59.418;17.962;2023-04-07T11:42:50;102701.34;;;3.43;79.56
70833;BME280;58452;59.418;17.962;2023-04-07T11:45:17;102701.00;;;3.54;80.14
70833;BME280;58452;59.418;17.962;2023-04-07T11:47:44;102704.16;;;3.62;79.90
70833;BME280;58452;59.418;17.962;2023-04-07T11:50:10;102698.00;;;3.68;79.88
70833;BME280;58452;59.418;17.962;2023-04-07T11:55:16;102701.03;;;3.79;79.27
70833;BME280;58452;59.418;17.962;2023-04-07T11:57:42;102707.97;;;3.75;79.39
70833;BME280;58452;59.418;17.962;2023-04-07T12:00:09;102708.94;;;3.71;79.25
70833;BME280;58452;59.418;17.962;2023-04-07T12:02:36;102707.38;;;3.67;79.41
70833;BME280;58452;59.418;17.962;2023-04-07T12:05:02;102707.78;;;3.55;79.64
70833;BME280;58452;59.418;17.962;2023-04-07T12:07:28;102714.16;;;3.68;79.74
70833;BME280;58452;59.418;17.962;2023-04-07T12:09:53;102714.47;;;3.59;79.51
70833;BME280;58452;59.418;17.962;2023-04-07T12:12:26;102706.63;;;3.64;78.85
70833;BME280;58452;59.418;17.962;2023-04-07T12:14:53;102711.56;;;3.70;79.20
70833;BME280;58452;59.418;17.962;2023-04-07T12:17:23;102711.25;;;3.79;78.60
70833;BME280;58452;59.418;17.962;2023-04-07T12:19:48;102713.94;;;3.74;79.54
70833;BME280;58452;59.418;17.962;2023-04-07T12:22:14;102710.63;;;3.72;78.65
70833;BME280;58452;59.418;17.962;2023-04-07T12:24:39;102709.91;;;3.67;79.01
70833;BME280;58452;59.418;17.962;2023-04-07T12:27:05;102709.69;;;3.75;79.33
70833;BME280;58452;59.418;17.962;2023-04-07T12:29:30;102700.84;;;3.85;79.26
70833;BME280;58452;59.418;17.962;2023-04-07T12:31:56;102705.59;;;3.96;78.63
70833;BME280;58452;59.418;17.962;2023-04-07T12:34:21;102706.34;;;3.99;78.05
70833;BME280;58452;59.418;17.962;2023-04-07T12:36:47;102706.25;;;4.01;77.67
70833;BME280;58452;59.418;17.962;2023-04-07T12:39:13;102701.75;;;4.09;77.53
70833;BME280;58452;59.418;17.962;2023-04-07T12:41:38;102699.78;;;4.17;77.38
70833;BME280;58452;59.418;17.962;2023-04-07T12:44:04;102698.19;;;4.13;77.19
70833;BME280;58452;59.418;17.962;2023-04-07T12:46:30;102694.06;;;4.09;76.56
70833;BME280;58452;59.418;17.962;2023-04-07T12:48:55;102699.19;;;4.09;76.54
70833;BME280;58452;59.418;17.962;2023-04-07T12:51:21;102694.06;;;4.09;76.79
70833;BME280;58452;59.418;17.962;2023-04-07T12:53:46;102696.38;;;4.16;76.46
70833;BME280;58452;59.418;17.962;2023-04-07T12:56:12;102688.66;;;4.18;76.80
70833;BME280;58452;59.418;17.962;2023-04-07T12:58:38;102693.44;;;4.27;76.44
70833;BME280;58452;59.418;17.962;2023-04-07T13:01:04;102683.78;;;4.35;76.08
70833;BME280;58452;59.418;17.962;2023-04-07T13:03:30;102687.22;;;4.34;75.82
70833;BME280;58452;59.418;17.962;2023-04-07T13:05:55;102697.56;;;4.31;75.96
70833;BME280;58452;59.418;17.962;2023-04-07T13:08:25;102693.22;;;4.33;75.97
70833;BME280;58452;59.418;17.962;2023-04-07T13:10:51;102686.25;;;4.38;75.99